Flight Track Log - Related Links

Times and Time Zones

All times are in EDT time to prevent confusion due to time zone crossing. See the JBU1371 flight status page for this flight to view local times or setup timezone preferences in your user account.

Time Position Orientation Groundspeed Altitude Reporting Facility
EDT Latitude Longitude Course Direction KTS MPH feet Rate Location/Type
Fri 09:39:54 PM 40.7667 -73.8333 197° South 153 176 1,500  Level New York TRACON
Fri 09:40:54 PM 40.7667 -73.7667 90° East 216 249 2,600 1,900 Climbing New York TRACON
Fri 09:41:54 PM 40.8333 -73.7500 11° North 255 293 5,300 2,750 Climbing New York TRACON
Fri 09:42:00 PM 38.7120 -75.3519 197° South  Level FlightAware Approximate
Fri 09:42:54 PM 40.8500 -73.8333 285° West 281 323 8,100  Level New York TRACON
Fri 09:43:00 PM 38.6192 -75.3888 197° South  Level FlightAware Approximate
Fri 09:43:54 PM 40.8000 -73.9167 232° Southwest 285 328 11,000  Level New York TRACON
Fri 09:44:00 PM 38.5261 -75.4246 197° South  Level FlightAware Approximate
Fri 09:44:54 PM 40.7500 -74.0000 232° Southwest 325 374 12,000  Level New York TRACON
Fri 09:45:00 PM 38.4330 -75.4604 197° South  Level FlightAware Approximate
Fri 09:47:08 PM 40.5842 -74.1486 214° Southwest 338 389 12,900  Level New York Center
Fri 09:48:06 PM 40.4844 -74.1383 176° South 346 398 15,300 1,796 Climbing New York Center
Fri 09:49:55 PM 40.2992 -74.1961 193° South 384 442 17,900 1,306 Climbing Washington Center
Fri 09:50:56 PM 40.2042 -74.2878 216° Southwest 402 463 19,000 1,300 Climbing Washington Center
Fri 09:51:55 PM 40.1053 -74.3764 214° Southwest 423 487 20,500 1,513 Climbing Washington Center
Fri 09:52:55 PM 40.0042 -74.4728 216° Southwest 441 507 22,000 1,311 Climbing Washington Center
Fri 09:53:54 PM 39.9008 -74.5664 215° Southwest 451 519 23,100 1,150 Climbing Washington Center
Fri 09:54:55 PM 39.7953 -74.6625 215° Southwest 458 527 24,300 1,180 Climbing Washington Center
Fri 09:55:56 PM 39.6878 -74.7583 214° Southwest 469 540 25,500 1,109 Climbing Washington Center
Fri 09:56:54 PM 39.5819 -74.8564 216° Southwest 474 545 26,500 1,109 Climbing Washington Center
Fri 09:57:55 PM 39.4742 -74.9569 216° Southwest 474 545 27,700 1,230 Climbing Washington Center
Fri 09:58:56 PM 39.3706 -75.0492 215° Southwest 474 545 29,000 1,240 Climbing Washington Center
Fri 09:59:56 PM 39.2583 -75.1358 211° Southwest 469 540 30,200 1,322 Climbing Washington Center
Fri 10:00:54 PM 39.1525 -75.2250 213° Southwest 469 540 31,600 915 Climbing Washington Center
Fri 10:01:54 PM 39.0381 -75.2897 204° Southwest 459 528 32,000 200 Climbing Washington Center
Fri 10:02:54 PM 38.9214 -75.3594 205° Southwest 459 528 32,000 298 Level Washington Center
Fri 10:03:55 PM 38.8028 -75.4292 205° Southwest 464 534 32,600 787 Climbing Washington Center
Fri 10:04:56 PM 38.6839 -75.4958 204° Southwest 464 534 33,600 1,059 Climbing Washington Center
Fri 10:05:54 PM 38.5650 -75.5650 204° Southwest 464 534 34,700 958 Climbing Washington Center
Fri 10:06:55 PM 38.4483 -75.6342 205° Southwest 464 534 35,500 650 Climbing Washington Center
Fri 10:07:54 PM 38.3294 -75.6975 203° Southwest 464 534 36,000 254 Climbing Washington Center
Fri 10:08:53 PM 38.2125 -75.7661 205° Southwest 464 534 36,000  Level Washington Center
Fri 10:09:54 PM 38.0936 -75.8344 204° Southwest 464 534 36,000  Level Washington Center
Fri 10:10:54 PM 37.9747 -75.9025 204° Southwest 464 534 36,000  Level Washington Center
Fri 10:11:55 PM 37.8556 -75.9706 204° Southwest 464 534 36,000  Level Washington Center
Fri 10:12:56 PM 37.7281 -76.0514 207° Southwest 464 534 36,000  Level Washington Center
Fri 10:13:54 PM 37.6089 -76.1186 204° Southwest 464 534 36,000  Level Washington Center
Fri 10:14:55 PM 37.4961 -76.1756 202° Southwest 469 540 36,000  Level Washington Center
Fri 10:15:54 PM 37.3747 -76.2425 204° Southwest 475 547 36,000  Level Washington Center
Fri 10:16:55 PM 37.2511 -76.3144 205° Southwest 482 555 36,000  Level Washington Center
Fri 10:17:54 PM 37.1278 -76.3839 204° Southwest 482 555 36,000  Level Washington Center
Fri 10:18:55 PM 37.0042 -76.4503 203° Southwest 482 555 36,000  Level Washington Center
Fri 10:19:53 PM 36.8828 -76.5189 204° Southwest 482 555 36,000  Level Washington Center
Fri 10:20:54 PM 36.7569 -76.5797 201° Southwest 482 555 36,000  Level Washington Center
Fri 10:21:55 PM 36.6314 -76.6350 199° South 482 555 36,000  Level Washington Center
Fri 10:22:56 PM 36.5036 -76.6875 198° South 482 555 36,000 -50 Level Washington Center
Fri 10:23:56 PM 36.3758 -76.7375 197° South 482 555 35,900  Descending Washington Center
Fri 10:24:56 PM 36.2461 -76.7894 198° South 487 560 36,000 50 Climbing Washington Center
Fri 10:25:55 PM 36.1183 -76.8392 197° South 487 560 36,000  Level Washington Center
Fri 10:26:56 PM 35.9906 -76.8911 198° South 487 560 36,000  Level Washington Center
Fri 10:27:54 PM 35.8647 -76.9428 198° South 487 560 36,000  Level Washington Center
Fri 10:28:55 PM 35.7389 -76.9919 198° South 487 560 36,000  Level Washington Center
Fri 10:29:55 PM 35.6047 -77.0483 199° South 477 549 36,000  Level Washington Center
Fri 10:30:55 PM 35.4769 -77.0994 198° South 472 543 36,000  Level Washington Center
Fri 10:31:53 PM 35.3511 -77.1481 197° South 477 549 36,000  Level Washington Center
Fri 10:32:54 PM 35.2231 -77.1964 197° South 483 556 36,000  Level Washington Center
Fri 10:33:54 PM 35.0972 -77.2472 198° South 483 556 36,000  Level Washington Center
Fri 10:34:55 PM 34.9775 -77.2956 198° South 478 550 36,000  Level Washington Center
Fri 10:35:54 PM 34.8494 -77.3458 198° South 478 550 36,000  Level Washington Center
Fri 10:36:54 PM 34.7258 -77.3964 199° South 478 550 36,000  Level Washington Center
Fri 10:37:55 PM 34.6019 -77.4467 198° South 478 550 36,000  Level Washington Center
Fri 10:39:34 PM 34.3919 -77.5283 198° South 480 552 36,000  Level Jacksonville Center
Fri 10:40:34 PM 34.2647 -77.5764 197° South 480 552 36,000  Level Jacksonville Center
Fri 10:41:34 PM 34.1394 -77.6217 197° South 474 545 36,000  Level Jacksonville Center
Fri 10:42:34 PM 34.0161 -77.6692 198° South 474 545 36,000  Level Jacksonville Center
Fri 10:43:34 PM 33.8931 -77.7189 199° South 469 540 36,000  Level Jacksonville Center
Fri 10:44:34 PM 33.7675 -77.7614 196° South 474 545 36,000  Level Jacksonville Center
Fri 10:45:34 PM 33.6425 -77.8136 199° South 469 540 36,000  Level Jacksonville Center
Fri 10:46:34 PM 33.5211 -77.8578 197° South 470 541 36,000  Level Jacksonville Center
Fri 10:47:34 PM 33.3978 -77.9047 198° South 470 541 36,000  Level Jacksonville Center
Fri 10:48:34 PM 33.2722 -77.9514 197° South 470 541 36,000  Level Jacksonville Center
Fri 10:49:34 PM 33.1511 -78.0003 199° South 470 541 36,000  Level Jacksonville Center
Fri 10:50:34 PM 33.0275 -78.0417 196° South 465 535 36,000  Level Jacksonville Center
Fri 10:51:34 PM 32.9039 -78.0881 197° South 465 535 36,000  Level Jacksonville Center
Fri 10:52:34 PM 32.7847 -78.1339 198° South 465 535 36,000  Level Jacksonville Center
Fri 10:53:34 PM 32.6653 -78.1747 196° South 457 526 36,000  Level Jacksonville Center
Fri 10:54:34 PM 32.5458 -78.2228 199° South 457 526 36,000  Level Jacksonville Center
Fri 10:55:34 PM 32.4244 -78.2683 198° South 457 526 36,000  Level Jacksonville Center
Fri 10:56:34 PM 32.3175 -78.3106 198° South 457 526 36,000  Level Jacksonville Center
Fri 10:57:34 PM 32.1961 -78.3583 198° South 458 527 36,000  Level Jacksonville Center
Fri 10:58:34 PM 32.0806 -78.3986 196° South 453 521 36,000  Level Jacksonville Center
Fri 10:59:34 PM 31.9589 -78.4436 197° South 458 527 36,000  Level Jacksonville Center
Fri 11:00:34 PM 31.8417 -78.4883 198° South 453 521 36,000 -50 Level Jacksonville Center
Fri 11:01:34 PM 31.7261 -78.5281 196° South 453 521 35,900  Descending Jacksonville Center
Fri 11:02:34 PM 31.6025 -78.5753 198° South 453 521 36,000  Climbing Jacksonville Center
Fri 11:03:34 PM 31.4847 -78.6172 197° South 453 521 35,900  Descending Jacksonville Center
Fri 11:04:34 PM 31.3672 -78.6567 196° South 453 521 36,000 50 Climbing Jacksonville Center
Fri 11:05:34 PM 31.2436 -78.7061 199° South 460 529 36,000  Level Jacksonville Center
Fri 11:06:34 PM 31.1239 -78.7456 196° South 460 529 36,000  Level Jacksonville Center
Fri 11:07:34 PM 31.0019 -78.7894 197° South 449 517 36,000  Level Jacksonville Center
Fri 11:08:34 PM 30.8781 -78.8311 196° South 461 531 36,000 -50 Level Jacksonville Center
Fri 11:09:34 PM 30.7606 -78.8750 198° South 455 524 35,900  Descending Jacksonville Center
Fri 11:10:34 PM 30.6389 -78.9186 197° South 455 524 36,000 43 Climbing Jacksonville Center
Fri 11:11:54 PM 30.4689 -78.9778 197° South 461 531 36,000  Level Miami Center
Fri 11:12:54 PM 30.3475 -79.0139 194° South 456 525 36,000  Level Miami Center
Fri 11:13:56 PM 30.2239 -79.0475 193° South 456 525 36,000  Level Miami Center
Fri 11:14:54 PM 30.0983 -79.0808 193° South 456 525 36,000  Level Miami Center
Fri 11:15:56 PM 29.9936 -79.1144 196° South 450 518 36,000  Level Miami Center
Fri 11:16:56 PM 29.8703 -79.1406 190° South 450 518 36,000  Level Miami Center
Fri 11:17:54 PM 29.7486 -79.1717 193° South 455 524 36,000  Level Miami Center
Fri 11:18:54 PM 29.6272 -79.2047 193° South 438 504 36,000  Level Miami Center
Fri 11:19:54 PM 29.4975 -79.2283 189° South 450 518 36,000  Level Miami Center
Fri 11:20:56 PM 29.3758 -79.2636 194° South 455 524 36,000  Level Miami Center
Fri 11:21:54 PM 29.2544 -79.2992 194° South 455 524 36,000  Level Miami Center
Fri 11:22:55 PM 29.1267 -79.3272 191° South 455 524 36,000  Level Miami Center
Fri 11:23:55 PM 29.0008 -79.3600 193° South 455 524 36,000  Level Miami Center
Fri 11:24:56 PM 28.8689 -79.3925 192° South 450 518 36,000  Level Miami Center
Fri 11:25:54 PM 28.7431 -79.4228 192° South 455 524 36,000  Level Miami Center
Fri 11:26:54 PM 28.6194 -79.4556 193° South 460 529 36,000  Level Miami Center
Fri 11:27:54 PM 28.4958 -79.4856 192° South 460 529 36,000  Level Miami Center
Fri 11:28:54 PM 28.3658 -79.5181 192° South 460 529 36,000  Level Miami Center
Fri 11:29:56 PM 28.2378 -79.5481 192° South 466 536 36,000  Level Miami Center
Fri 11:30:54 PM 28.1142 -79.5781 192° South 466 536 36,000 -353 Level Miami Center
Fri 11:31:55 PM 27.9861 -79.6103 193° South 466 536 35,300 -1,328 Descending Miami Center
Fri 11:32:56 PM 27.8647 -79.6331 189° South 466 536 33,300 -2,420 Descending Miami Center
Fri 11:33:54 PM 27.7328 -79.6486 186° South 460 529 30,500 -2,529 Descending Miami Center
Fri 11:34:57 PM 27.6156 -79.6692 189° South 474 545 28,200 -2,231 Descending Miami Center
Fri 11:35:55 PM 27.4900 -79.6872 187° South 474 545 26,000 -2,390 Descending Miami Center
Fri 11:36:55 PM 27.3600 -79.7075 188° South 442 509 23,500 -2,319 Descending Miami Center
Fri 11:37:54 PM 27.2469 -79.7256 188° South 420 483 21,400 -2,050 Descending Miami Center
Fri 11:38:55 PM 27.1358 -79.7439 188° South 407 468 19,400 -1,835 Descending Miami Center
Fri 11:39:55 PM 27.0397 -79.7556 186° South 402 463 17,700 -2,017 Descending Miami Center
Fri 11:40:54 PM 26.9392 -79.7717 188° South 382 440 15,400 -2,370 Descending Miami Center
Fri 11:41:54 PM 26.8364 -79.7878 188° South 352 405 13,000 -2,100 Descending Miami Center
Fri 11:42:54 PM 26.7419 -79.8039 189° South 352 405 11,200 -1,574 Descending Miami Center
Fri 11:43:56 PM 26.6686 -79.8161 188° South 324 373 9,800 -1,488 Descending Miami Center
Fri 11:44:55 PM 26.5764 -79.8300 188° South 307 353 8,200 -1,149 Descending Miami Center
Fri 11:45:30 PM 26.5264 -79.8358 186° South 293 337 8,000 -176 Descending Miami Center
Fri 11:46:37 PM 26.4425 -79.8522 190° South 292 336 7,900 -744 Descending Miami Center
Fri 11:47:31 PM 26.3692 -79.8642 188° South 284 327 6,500 -1,593 Descending Miami Center
Fri 11:48:30 PM 26.2936 -79.8786 190° South 282 325 4,900 -1,230 Descending Miami Center
Fri 11:49:33 PM 26.2117 -79.8928 189° South 271 312 4,000 -439 Descending Miami Center
Fri 11:50:33 PM 26.1383 -79.9094 192° South 270 311 4,000 -645 Level Miami Center
Fri 11:51:34 PM 26.0794 -79.9333 200° South 225 259 2,700 -839 Descending Miami Center
Fri 11:52:56 PM 26.0756 -80.0072 267° West 185 213 2,000 -550 Descending Miami Center
Fri 11:53:45 PM 26.0747 -80.0581 269° West 152 175 1,500 -641 Descending Miami Center
Fri 11:54:39 PM 26.0739 -80.0928 268° West 129 148 900 -667 Descending Miami Center
Fri 11:56:00 PM 26.0726 -80.1527 268° West  Level Estimated
Sat 12:03:00 AM 26.0726 -80.1527 103° East  Level Estimated

Login

Don't have an account? Register now (free) for customized features, flight alerts, and more!